Time;durP1;ratioP1;P1;durP2;ratioP2;P2;SDS_P1;SDS_P2;PMS_P1;PMS_P2;Temp;Humidity;BMP_temperature;BMP_pressure;BME280_temperature;BME280_humidity;BME280_pressure;Samples;Min_cycle;Max_cycle;Signal;HPM_P1;HPM_P2
2022/07/27 00:02:17;;;;;;;4.47;1.20;;;15.20;99.90;;;;;;5074758;28;20037;-61
2022/07/27 00:04:43;;;;;;;6.53;1.23;;;15.20;99.90;;;;;;5074976;28;20465;-61
2022/07/27 00:07:08;;;;;;;7.50;1.20;;;15.20;99.90;;;;;;5074674;28;20093;-61
2022/07/27 00:09:34;;;;;;;9.32;1.55;;;15.20;99.90;;;;;;5074801;28;20040;-61
2022/07/27 00:12:00;;;;;;;6.32;1.67;;;15.20;99.90;;;;;;5074689;28;20044;-61
2022/07/27 00:14:25;;;;;;;5.95;1.20;;;15.10;99.90;;;;;;5074487;28;20041;-61
2022/07/27 00:16:51;;;;;;;6.22;1.40;;;15.10;99.90;;;;;;5074414;28;20040;-61
2022/07/27 00:19:17;;;;;;;8.35;1.77;;;14.80;99.90;;;;;;5074692;28;20048;-61
2022/07/27 00:21:42;;;;;;;8.30;1.52;;;14.70;99.90;;;;;;5054964;28;20041;-61
2022/07/27 00:24:08;;;;;;;6.28;1.48;;;14.60;99.90;;;;;;5054686;28;20394;-61
2022/07/27 00:26:34;;;;;;;7.32;1.92;;;14.50;99.90;;;;;;5054394;28;20501;-61
2022/07/27 00:28:59;;;;;;;6.55;1.80;;;14.50;99.90;;;;;;5054373;28;20171;-61
2022/07/27 00:31:25;;;;;;;7.30;1.70;;;14.50;99.90;;;;;;5054149;28;20561;-60
2022/07/27 00:33:51;;;;;;;7.53;1.83;;;14.40;99.90;;;;;;5054119;28;20052;-61
2022/07/27 00:36:16;;;;;;;5.32;1.90;;;14.20;99.90;;;;;;5054059;28;20041;-61
2022/07/27 00:38:42;;;;;;;6.65;1.88;;;14.10;99.90;;;;;;5069636;28;20095;-61
2022/07/27 00:41:08;;;;;;;6.72;1.63;;;14.00;99.90;;;;;;5054160;28;20036;-60
2022/07/27 00:43:49;;;;;;;9.02;2.10;;;14.00;99.90;;;;;;5053871;28;20091;-60
2022/07/27 00:46:15;;;;;;;8.10;1.77;;;14.20;99.90;;;;;;5054031;28;20048;-61
2022/07/27 00:48:40;;;;;;;6.65;1.83;;;14.00;99.90;;;;;;5053712;28;20047;-61
2022/07/27 00:51:06;;;;;;;4.85;1.63;;;14.10;99.90;;;;;;5052503;28;20045;-60
2022/07/27 00:53:32;;;;;;;8.77;1.80;;;14.00;99.90;;;;;;5053673;28;20048;-61
2022/07/27 00:55:58;;;;;;;6.63;2.33;;;14.10;99.90;;;;;;5053570;28;20098;-61
2022/07/27 00:58:25;;;;;;;6.15;1.65;;;14.10;99.90;;;;;;5053461;28;20120;-60
2022/07/27 01:00:51;;;;;;;6.93;1.60;;;14.10;99.90;;;;;;5053456;28;20085;-60
2022/07/27 01:03:17;;;;;;;7.60;1.88;;;14.20;99.90;;;;;;5053263;28;20044;-61
2022/07/27 01:05:42;;;;;;;8.55;1.67;;;14.50;99.90;;;;;;5053589;28;20045;-61
2022/07/27 01:08:10;;;;;;;7.10;1.50;;;14.60;99.90;;;;;;5052266;28;20037;-61
2022/07/27 01:10:37;;;;;;;6.00;1.48;;;14.60;99.90;;;;;;5053574;28;20416;-60
2022/07/27 01:13:03;;;;;;;10.60;1.42;;;14.70;99.90;;;;;;5053324;28;20041;-61
2022/07/27 01:15:29;;;;;;;8.07;1.52;;;14.70;99.90;;;;;;5053504;28;20037;-61
2022/07/27 01:17:55;;;;;;;4.97;1.38;;;14.60;99.90;;;;;;5053465;28;20405;-61
2022/07/27 01:20:21;;;;;;;7.03;1.95;;;14.60;99.90;;;;;;5053325;28;20029;-61
2022/07/27 01:22:47;;;;;;;7.28;1.30;;;14.70;99.90;;;;;;5053341;28;20458;-61
2022/07/27 01:25:13;;;;;;;8.50;1.60;;;14.70;99.90;;;;;;5053497;28;20112;-61
2022/07/27 01:27:39;;;;;;;5.45;1.40;;;14.70;99.90;;;;;;5052951;28;20040;-61
2022/07/27 01:30:47;;;;;;;6.22;1.40;;;14.60;99.90;;;;;;5051724;28;20041;-61
2022/07/27 01:33:04;;;;;;;8.77;1.50;;;14.60;99.90;;;;;;5047087;28;20125;-60
2022/07/27 01:35:30;;;;;;;11.48;1.40;;;14.50;99.90;;;;;;5052852;28;20087;-59
2022/07/27 01:37:56;;;;;;;6.30;1.45;;;14.60;99.90;;;;;;5059153;28;20036;-63
2022/07/27 01:40:22;;;;;;;8.85;2.40;;;14.60;99.90;;;;;;5054814;28;20094;-62
2022/07/27 01:42:47;;;;;;;7.18;1.30;;;14.60;99.90;;;;;;5072798;28;20103;-60
2022/07/27 01:45:13;;;;;;;10.30;2.15;;;14.70;99.90;;;;;;5072673;28;20044;-61
2022/07/27 01:47:39;;;;;;;8.73;1.75;;;14.60;99.90;;;;;;5072797;28;20466;-61
2022/07/27 01:50:05;;;;;;;7.70;1.80;;;14.60;99.90;;;;;;5072694;28;20045;-61
2022/07/27 01:52:31;;;;;;;8.77;1.70;;;14.60;99.90;;;;;;5072486;28;20040;-60
2022/07/27 01:54:56;;;;;;;7.45;1.70;;;14.60;99.90;;;;;;5072685;28;20039;-60
2022/07/27 01:57:22;;;;;;;6.47;1.60;;;14.60;99.90;;;;;;5072569;28;20063;-61
2022/07/27 01:59:48;;;;;;;8.90;1.80;;;14.60;99.90;;;;;;5072580;28;20044;-61
2022/07/27 02:02:14;;;;;;;5.95;1.50;;;14.50;99.90;;;;;;5072522;28;20070;-60
2022/07/27 02:04:41;;;;;;;10.38;2.60;;;14.50;99.90;;;;;;5072460;28;20037;-61
2022/07/27 02:07:07;;;;;;;9.02;2.00;;;14.40;99.90;;;;;;5072336;28;20040;-62
2022/07/27 02:09:33;;;;;;;7.38;1.73;;;14.50;99.90;;;;;;5072490;28;20040;-61
2022/07/27 02:14:43;;;;;;;6.90;1.70;;;14.20;99.90;;;;;;5071724;28;20219;-60
2022/07/27 02:17:08;;;;;;;8.13;1.88;;;14.30;99.90;;;;;;5072123;28;20119;-60
2022/07/27 02:19:34;;;;;;;9.32;2.13;;;14.30;99.90;;;;;;5070133;28;20404;-61
2022/07/27 02:22:00;;;;;;;7.97;2.10;;;14.30;99.90;;;;;;5052315;28;20088;-61
2022/07/27 02:24:25;;;;;;;8.10;2.17;;;13.90;99.90;;;;;;5052180;28;20433;-61
2022/07/27 02:26:51;;;;;;;11.18;2.15;;;13.90;99.90;;;;;;5052246;28;20037;-61
2022/07/27 02:29:17;;;;;;;8.43;2.05;;;13.90;99.90;;;;;;5050778;28;20122;-61
2022/07/27 02:31:42;;;;;;;6.93;1.63;;;14.00;99.90;;;;;;5052098;28;20442;-61
2022/07/27 02:34:08;;;;;;;11.10;2.00;;;14.00;99.90;;;;;;5051764;28;20390;-61
2022/07/27 02:36:34;;;;;;;9.77;2.45;;;14.00;99.90;;;;;;5050645;28;20090;-61
2022/07/27 02:38:59;;;;;;;13.55;2.47;;;14.10;99.90;;;;;;5067181;28;20074;-61
2022/07/27 02:41:25;;;;;;;7.63;1.88;;;14.20;99.90;;;;;;5072137;28;20044;-61
2022/07/27 02:43:51;;;;;;;7.60;1.63;;;14.30;99.90;;;;;;5071991;28;20043;-61
2022/07/27 02:46:16;;;;;;;9.77;2.17;;;14.30;99.90;;;;;;5071902;28;20784;-61
2022/07/27 02:48:42;;;;;;;8.93;1.67;;;14.30;99.90;;;;;;5071830;28;20429;-61
2022/07/27 02:51:08;;;;;;;12.38;2.15;;;14.30;99.90;;;;;;5071843;28;20072;-60
2022/07/27 02:53:33;;;;;;;10.02;2.85;;;14.40;99.90;;;;;;5071921;28;20037;-61
2022/07/27 02:55:59;;;;;;;9.45;2.78;;;14.40;99.90;;;;;;5070512;28;20040;-61
2022/07/27 02:58:24;;;;;;;8.35;1.85;;;14.40;99.90;;;;;;5071936;28;20033;-61
2022/07/27 03:00:50;;;;;;;6.78;1.73;;;14.40;99.90;;;;;;5071676;28;20119;-61
2022/07/27 03:03:16;;;;;;;9.00;2.30;;;14.50;99.90;;;;;;5071702;28;20036;-61
2022/07/27 03:05:41;;;;;;;7.43;1.70;;;14.50;99.90;;;;;;5070505;28;20049;-61
2022/07/27 03:08:07;;;;;;;8.05;2.40;;;14.50;99.90;;;;;;5071840;28;20043;-61
2022/07/27 03:10:33;;;;;;;7.93;1.85;;;14.60;99.90;;;;;;5071808;28;20051;-60
2022/07/27 03:12:58;;;;;;;6.60;2.08;;;14.50;99.90;;;;;;5071689;28;20048;-61
2022/07/27 03:15:24;;;;;;;8.32;1.80;;;14.40;99.90;;;;;;5071493;28;20438;-61
2022/07/27 03:17:50;;;;;;;6.93;2.10;;;14.40;99.90;;;;;;5071531;28;20036;-61
2022/07/27 03:20:16;;;;;;;11.05;2.38;;;14.40;99.90;;;;;;5063763;28;20040;-61
2022/07/27 03:22:42;;;;;;;9.40;2.85;;;14.20;99.90;;;;;;5051619;28;20116;-60
2022/07/27 03:25:09;;;;;;;8.18;2.25;;;14.20;99.90;;;;;;5051628;28;20450;-61
2022/07/27 03:27:34;;;;;;;9.52;2.22;;;14.10;99.90;;;;;;5053671;28;20485;-61
2022/07/27 03:30:00;;;;;;;8.63;2.38;;;14.10;99.90;;;;;;5055355;28;20052;-61
2022/07/27 03:32:26;;;;;;;5.43;2.13;;;14.10;99.90;;;;;;5055278;28;20398;-61
2022/07/27 03:34:52;;;;;;;8.55;2.17;;;13.90;99.90;;;;;;5055065;28;20067;-60
2022/07/27 03:37:18;;;;;;;10.07;2.63;;;14.00;99.90;;;;;;5056566;28;20059;-61
2022/07/27 03:39:44;;;;;;;10.02;2.28;;;13.80;99.90;;;;;;5075455;28;20448;-60
2022/07/27 03:42:11;;;;;;;11.07;2.60;;;13.80;99.90;;;;;;5075091;28;20036;-61
2022/07/27 03:44:37;;;;;;;9.93;2.58;;;13.90;99.90;;;;;;5075170;28;20054;-60
2022/07/27 03:47:03;;;;;;;7.03;2.28;;;13.80;99.90;;;;;;5074921;28;20497;-61
2022/07/27 03:49:29;;;;;;;10.18;2.70;;;13.80;99.90;;;;;;5075235;28;20123;-61
2022/07/27 03:51:55;;;;;;;7.57;2.28;;;13.80;99.90;;;;;;5075225;28;20036;-61
2022/07/27 03:54:20;;;;;;;8.68;2.85;;;13.90;99.90;;;;;;5074977;28;20094;-61
2022/07/27 03:56:46;;;;;;;8.40;2.65;;;14.00;99.90;;;;;;5074872;28;20043;-61
2022/07/27 03:59:12;;;;;;;6.93;2.05;;;14.10;99.90;;;;;;5074838;28;20374;-61
2022/07/27 04:01:37;;;;;;;9.05;2.53;;;14.10;99.90;;;;;;5074759;28;20044;-61
2022/07/27 04:04:04;;;;;;;7.55;2.42;;;14.00;99.90;;;;;;5074947;28;20043;-61
2022/07/27 04:06:29;;;;;;;8.45;2.80;;;13.90;99.90;;;;;;5073666;28;20504;-61
2022/07/27 04:08:55;;;;;;;9.35;2.72;;;14.00;99.90;;;;;;5073576;28;20067;-61
2022/07/27 04:11:21;;;;;;;8.75;2.50;;;13.90;99.90;;;;;;5074756;28;20044;-61
2022/07/27 04:13:50;;;;;;;10.13;2.78;;;14.00;99.90;;;;;;5074685;28;20037;-61
2022/07/27 04:16:16;;;;;;;9.35;2.50;;;14.10;99.90;;;;;;5074446;28;20101;-61
2022/07/27 04:18:41;;;;;;;8.15;2.83;;;14.00;99.90;;;;;;5074458;28;20119;-61
2022/07/27 04:21:07;;;;;;;9.45;3.05;;;14.00;99.90;;;;;;5059631;28;20091;-61
2022/07/27 04:23:33;;;;;;;8.10;2.90;;;13.80;99.90;;;;;;5054423;28;20040;-61
2022/07/27 04:25:59;;;;;;;9.45;3.17;;;13.70;99.90;;;;;;5054415;28;20382;-61
2022/07/27 04:28:25;;;;;;;10.88;2.53;;;13.50;99.90;;;;;;5054372;28;20090;-61
2022/07/27 04:30:50;;;;;;;12.38;3.60;;;13.50;99.90;;;;;;5069699;28;20456;-61
2022/07/27 04:33:16;;;;;;;8.35;3.42;;;13.60;99.90;;;;;;5054321;28;20140;-61
2022/07/27 04:35:43;;;;;;;11.10;3.47;;;13.50;99.90;;;;;;5054236;28;20136;-61
2022/07/27 04:38:09;;;;;;;14.93;3.33;;;13.40;99.90;;;;;;5062031;28;20111;-61
2022/07/27 04:40:34;;;;;;;10.25;2.08;;;13.40;99.90;;;;;;5074202;28;20047;-61
2022/07/27 04:43:02;;;;;;;12.02;2.60;;;13.30;99.90;;;;;;5074120;28;20124;-61
2022/07/27 04:45:28;;;;;;;8.70;2.40;;;13.30;99.90;;;;;;5073970;28;20405;-61
2022/07/27 04:47:54;;;;;;;9.20;2.38;;;13.30;99.90;;;;;;5074246;28;20043;-61
2022/07/27 04:50:19;;;;;;;6.90;2.17;;;13.40;99.90;;;;;;5074012;28;20045;-61
2022/07/27 04:52:45;;;;;;;8.90;2.20;;;13.40;99.90;;;;;;5074095;28;20043;-60
2022/07/27 04:55:11;;;;;;;7.72;2.10;;;13.40;99.90;;;;;;5073693;28;20472;-61
2022/07/27 04:57:38;;;;;;;7.65;2.22;;;13.40;99.90;;;;;;5072529;28;20049;-61
2022/07/27 05:00:05;;;;;;;10.38;3.08;;;13.40;99.90;;;;;;5073708;28;20037;-60
2022/07/27 05:02:30;;;;;;;11.15;3.42;;;13.40;99.90;;;;;;5073782;28;20040;-60
2022/07/27 05:04:58;;;;;;;7.82;1.90;;;13.50;99.90;;;;;;5073783;28;20114;-60
2022/07/27 05:07:25;;;;;;;7.63;2.28;;;13.60;99.90;;;;;;5073689;28;20044;-60
2022/07/27 05:09:51;;;;;;;7.47;1.88;;;13.60;99.90;;;;;;5073584;28;20400;-59
2022/07/27 05:12:16;;;;;;;8.48;1.98;;;13.70;99.90;;;;;;5072499;28;20044;-60
2022/07/27 05:14:42;;;;;;;8.77;1.83;;;13.60;99.90;;;;;;5073269;28;20467;-61
2022/07/27 05:17:08;;;;;;;15.82;3.00;;;13.70;99.90;;;;;;5073266;28;20143;-60
2022/07/27 05:19:33;;;;;;;6.60;2.00;;;13.80;99.90;;;;;;5071349;28;20120;-62
2022/07/27 05:22:00;;;;;;;12.63;1.90;;;13.90;99.90;;;;;;5053229;28;20037;-60
2022/07/27 05:24:26;;;;;;;9.93;1.85;;;14.00;99.90;;;;;;5053502;28;20170;-61
2022/07/27 05:26:51;;;;;;;7.97;1.90;;;14.00;99.90;;;;;;5053186;28;20548;-61
2022/07/27 05:29:18;;;;;;;10.32;1.98;;;14.10;99.90;;;;;;5053072;28;20119;-61
2022/07/27 05:31:43;;;;;;;6.28;1.73;;;14.20;99.90;;;;;;5052928;28;20045;-61
2022/07/27 05:34:09;;;;;;;9.98;2.38;;;14.20;99.90;;;;;;5053011;28;20064;-61
2022/07/27 05:36:35;;;;;;;8.35;2.00;;;14.40;99.90;;;;;;5053193;28;20463;-61
2022/07/27 05:39:00;;;;;;;9.18;2.17;;;14.50;99.90;;;;;;5068650;28;20032;-60
2022/07/27 05:41:26;;;;;;;9.52;2.60;;;14.50;99.90;;;;;;5073011;28;20477;-62
2022/07/27 05:43:55;;;;;;;12.63;2.13;;;14.50;99.90;;;;;;5072782;28;20048;-61
2022/07/27 05:46:21;;;;;;;8.48;2.00;;;14.60;99.90;;;;;;5073117;28;20123;-61
2022/07/27 05:48:47;;;;;;;10.77;2.33;;;14.70;99.90;;;;;;5072554;28;20036;-61
2022/07/27 05:51:13;;;;;;;10.95;2.60;;;14.70;99.90;;;;;;5072440;28;20131;-61
2022/07/27 05:53:38;;;;;;;9.73;2.20;;;14.80;99.90;;;;;;5072650;28;20044;-61
2022/07/27 05:56:06;;;;;;;8.80;2.10;;;14.80;99.90;;;;;;5072493;28;20041;-60
2022/07/27 05:58:32;;;;;;;9.88;2.10;;;14.90;99.90;;;;;;5072487;28;20119;-60
2022/07/27 06:00:58;;;;;;;7.35;2.25;;;14.80;99.90;;;;;;5072801;28;20044;-61
2022/07/27 06:03:25;;;;;;;9.55;2.00;;;15.00;99.90;;;;;;5071460;28;20044;-61
2022/07/27 06:05:50;;;;;;;8.32;2.35;;;14.90;99.90;;;;;;5072460;28;20123;-61
2022/07/27 06:08:16;;;;;;;8.13;2.08;;;15.20;99.90;;;;;;5072551;28;20128;-61
2022/07/27 06:10:42;;;;;;;9.73;2.05;;;15.40;99.90;;;;;;5072478;28;20076;-61
2022/07/27 06:13:10;;;;;;;9.90;1.98;;;15.50;99.90;;;;;;5072419;28;20090;-61
2022/07/27 06:15:37;;;;;;;10.25;2.10;;;15.70;99.90;;;;;;5072503;28;20116;-61
2022/07/27 06:18:05;;;;;;;8.90;2.00;;;15.70;99.90;;;;;;5072549;28;20044;-61
2022/07/27 06:20:31;;;;;;;7.90;1.80;;;15.90;99.90;;;;;;5062439;28;20048;-62
2022/07/27 06:23:04;;;;;;;8.55;1.83;;;16.10;99.90;;;;;;5052334;28;20385;-61
2022/07/27 06:25:32;;;;;;;7.18;1.42;;;16.20;99.90;;;;;;5052141;28;20049;-61
2022/07/27 06:27:58;;;;;;;7.43;1.80;;;16.10;99.90;;;;;;5052389;28;20044;-61
2022/07/27 06:30:24;;;;;;;9.15;1.83;;;15.90;99.90;;;;;;5052337;28;20040;-61
2022/07/27 06:32:49;;;;;;;8.27;1.70;;;15.90;99.90;;;;;;5052063;28;20401;-61
2022/07/27 06:35:15;;;;;;;10.70;1.70;;;16.00;99.90;;;;;;5050950;28;20123;-61
2022/07/27 06:37:47;;;;;;;9.02;2.28;;;16.10;99.90;;;;;;5056563;28;20529;-61
2022/07/27 06:40:13;;;;;;;8.02;1.95;;;16.10;99.90;;;;;;5070815;28;20044;-60
2022/07/27 06:42:39;;;;;;;10.07;1.58;;;16.10;99.90;;;;;;5072043;28;20044;-61
2022/07/27 06:45:06;;;;;;;5.70;1.42;;;16.20;99.90;;;;;;5072127;28;20637;-61
2022/07/27 06:47:32;;;;;;;10.23;1.70;;;16.20;99.90;;;;;;5072164;28;20040;-61
2022/07/27 06:49:58;;;;;;;10.95;1.75;;;16.20;99.90;;;;;;5071471;28;20638;-61
2022/07/27 06:52:24;;;;;;;5.53;1.40;;;16.30;99.90;;;;;;5069851;28;20043;-61
2022/07/27 06:54:49;;;;;;;7.53;1.52;;;16.40;99.90;;;;;;5070979;28;20040;-61
2022/07/27 06:57:15;;;;;;;10.90;1.95;;;16.70;99.90;;;;;;5071216;28;20063;-61
2022/07/27 06:59:41;;;;;;;5.95;1.40;;;16.60;99.90;;;;;;5071192;28;20038;-61
2022/07/27 07:02:07;;;;;;;7.93;1.60;;;16.70;99.90;;;;;;5074298;28;20036;-61
2022/07/27 07:04:33;;;;;;;6.53;1.40;;;16.50;99.90;;;;;;5075037;28;20044;-61
2022/07/27 07:07:00;;;;;;;5.90;1.60;;;16.40;99.90;;;;;;5074695;28;20043;-62
2022/07/27 07:09:27;;;;;;;7.53;1.40;;;16.60;99.90;;;;;;5074692;28;20048;-61
2022/07/27 07:11:53;;;;;;;8.35;1.48;;;16.60;99.90;;;;;;5074592;28;20036;-61
2022/07/27 07:14:19;;;;;;;4.72;1.45;;;16.50;99.90;;;;;;5075086;28;20036;-61
2022/07/27 07:16:44;;;;;;;6.28;1.67;;;16.40;99.90;;;;;;5074681;28;20127;-61
2022/07/27 07:19:11;;;;;;;8.52;1.52;;;16.20;99.90;;;;;;5074771;28;20038;-61
2022/07/27 07:21:37;;;;;;;8.55;2.00;;;16.10;99.90;;;;;;5055685;28;20408;-61
2022/07/27 07:24:02;;;;;;;9.43;1.70;;;16.20;99.90;;;;;;5054842;28;20046;-61
2022/07/27 07:26:28;;;;;;;8.27;1.77;;;15.80;99.90;;;;;;5054767;28;20524;-61
2022/07/27 07:28:54;;;;;;;9.65;2.38;;;15.50;99.90;;;;;;5054798;28;20044;-61
2022/07/27 07:31:20;;;;;;;9.45;2.03;;;15.40;99.90;;;;;;5054625;28;20036;-61
2022/07/27 07:33:46;;;;;;;6.90;1.42;;;15.10;99.90;;;;;;5069497;28;20053;-61
2022/07/27 07:36:12;;;;;;;9.13;1.90;;;14.90;99.90;;;;;;5053873;28;20045;-61
2022/07/27 07:38:37;;;;;;;9.07;2.03;;;14.70;99.90;;;;;;5066576;28;20037;-60
2022/07/27 07:41:03;;;;;;;6.93;1.73;;;14.60;99.90;;;;;;5074333;28;20489;-60
2022/07/27 07:43:29;;;;;;;10.27;2.15;;;14.60;99.90;;;;;;5074498;28;20119;-61
2022/07/27 07:45:54;;;;;;;8.05;2.13;;;14.40;99.90;;;;;;5074256;28;20090;-61
2022/07/27 07:48:21;;;;;;;9.27;1.95;;;14.50;99.90;;;;;;5074241;28;20458;-61
2022/07/27 07:50:48;;;;;;;8.45;1.77;;;14.60;99.90;;;;;;5074089;28;20459;-61
2022/07/27 07:53:14;;;;;;;4.25;1.60;;;14.50;99.90;;;;;;5073919;28;20568;-61
2022/07/27 07:55:40;;;;;;;8.60;1.90;;;14.70;99.90;;;;;;5072945;28;20140;-61
2022/07/27 07:58:05;;;;;;;8.30;1.80;;;14.80;99.90;;;;;;5074190;28;20036;-60
2022/07/27 08:00:31;;;;;;;6.78;2.15;;;14.90;99.90;;;;;;5073952;28;20485;-61
2022/07/27 08:02:57;;;;;;;7.72;1.58;;;15.10;99.90;;;;;;5072769;28;20072;-61
2022/07/27 08:05:25;;;;;;;9.32;2.13;;;15.10;99.90;;;;;;5073418;28;20082;-61
2022/07/27 08:07:51;;;;;;;6.55;1.90;;;15.20;99.90;;;;;;5072707;28;20048;-61
2022/07/27 08:10:18;;;;;;;5.22;1.20;;;15.40;99.90;;;;;;5073698;28;20040;-61
2022/07/27 08:12:47;;;;;;;6.82;1.48;;;15.50;99.90;;;;;;5072847;28;20102;-61
2022/07/27 08:15:14;;;;;;;6.40;1.40;;;15.60;99.90;;;;;;5073635;28;20149;-61
2022/07/27 08:17:41;;;;;;;6.90;1.30;;;15.70;99.90;;;;;;5073525;28;20040;-61
2022/07/27 08:20:08;;;;;;;6.25;1.50;;;16.00;99.90;;;;;;5066920;28;20045;-61
2022/07/27 08:22:34;;;;;;;5.78;1.65;;;16.10;99.90;;;;;;5051802;28;20464;-61
2022/07/27 08:25:01;;;;;;;5.68;1.58;;;16.10;99.90;;;;;;5056525;28;20029;-60
2022/07/27 08:27:26;;;;;;;5.35;1.65;;;16.00;99.90;;;;;;5064616;28;20626;-60
2022/07/27 08:29:52;;;;;;;4.90;1.73;;;16.30;99.90;;;;;;5064882;28;20078;-59
2022/07/27 08:32:18;;;;;;;7.28;1.20;;;16.30;99.90;;;;;;5065171;28;20032;-59
2022/07/27 08:34:44;;;;;;;7.18;1.40;;;16.60;99.90;;;;;;5065581;28;20083;-60
2022/07/27 08:37:10;;;;;;;5.72;1.30;;;16.90;99.90;;;;;;5064083;28;20522;-61
2022/07/27 08:39:36;;;;;;;6.80;1.42;;;17.10;99.90;;;;;;5068902;28;20036;-61
2022/07/27 08:42:05;;;;;;;9.60;1.65;;;17.10;99.90;;;;;;5073136;28;20036;-63
2022/07/27 08:44:33;;;;;;;7.10;1.35;;;17.10;99.90;;;;;;5073473;28;20183;-62
2022/07/27 08:47:02;;;;;;;6.55;1.40;;;17.40;99.90;;;;;;5073425;28;20048;-63
2022/07/27 08:49:29;;;;;;;4.43;1.30;;;17.60;99.90;;;;;;5073516;28;20516;-63
2022/07/27 08:51:56;;;;;;;6.00;1.48;;;17.70;99.90;;;;;;5072923;28;20119;-63
2022/07/27 08:54:22;;;;;;;5.35;1.35;;;17.60;99.90;;;;;;5072990;28;20111;-63
2022/07/27 08:56:48;;;;;;;5.15;1.10;;;17.80;99.90;;;;;;5073263;28;20123;-63
2022/07/27 08:59:14;;;;;;;10.18;1.33;;;17.90;99.90;;;;;;5073483;28;20120;-63
2022/07/27 09:01:39;;;;;;;5.72;1.25;;;18.00;99.90;;;;;;5073533;28;20037;-62
2022/07/27 09:04:07;;;;;;;8.85;1.30;;;18.00;99.90;;;;;;5073764;28;20044;-63
2022/07/27 09:06:50;;;;;;;6.65;1.00;;;17.90;99.90;;;;;;5073526;28;20127;-63
2022/07/27 09:09:20;;;;;;;5.85;1.10;;;18.10;99.90;;;;;;5068159;28;20036;-63
2022/07/27 09:12:09;;;;;;;4.47;1.30;;;18.20;99.90;;;;;;5041607;28;20044;-62
2022/07/27 09:14:37;;;;;;;6.25;1.20;;;18.00;99.90;;;;;;5047566;28;20052;-62
2022/07/27 09:17:23;;;;;;;5.78;1.23;;;18.00;99.90;;;;;;5052198;28;20393;-62
2022/07/27 09:20:03;;;;;;;9.48;1.83;;;17.80;99.90;;;;;;5047795;28;20091;-62
2022/07/27 09:22:45;;;;;;;5.93;1.10;;;17.70;99.90;;;;;;5033439;28;20564;-63
2022/07/27 09:25:13;;;;;;;4.88;1.13;;;18.00;99.90;;;;;;5031951;28;20120;-63
2022/07/27 09:27:40;;;;;;;5.93;1.92;;;18.20;99.90;;;;;;5033169;28;20489;-62
2022/07/27 09:30:15;;;;;;;10.85;2.15;;;18.30;99.90;;;;;;5042054;28;20029;-61
2022/07/27 09:33:01;;;;;;;6.78;1.48;;;18.40;99.90;;;;;;5042368;28;20087;-62
2022/07/27 09:35:30;;;;;;;5.00;1.02;;;18.40;99.90;;;;;;5043202;28;20057;-62
2022/07/27 09:38:14;;;;;;;5.43;1.25;;;18.20;99.90;;;;;;5051195;28;20036;-62
2022/07/27 09:40:40;;;;;;;9.07;1.38;;;18.30;99.90;;;;;;5072788;28;20032;-62
2022/07/27 09:43:09;;;;;;;5.18;0.90;;;18.30;99.90;;;;;;5072726;28;20083;-61
2022/07/27 09:45:36;;;;;;;7.15;1.23;;;18.40;99.90;;;;;;5072771;28;20051;-62
2022/07/27 09:48:16;;;;;;;4.45;1.38;;;18.20;99.90;;;;;;5072583;28;20135;-64
2022/07/27 09:51:04;;;;;;;5.55;1.10;;;18.40;99.90;;;;;;5072825;28;20032;-62
2022/07/27 09:53:32;;;;;;;3.60;1.10;;;18.40;99.90;;;;;;5054654;28;20370;-63
2022/07/27 09:56:06;;;;;;;4.18;1.20;;;18.70;99.90;;;;;;5072218;28;20135;-62
2022/07/27 09:58:45;;;;;;;4.18;1.00;;;18.90;99.90;;;;;;5072641;28;20068;-62
2022/07/27 10:01:40;;;;;;;2.95;0.85;;;18.60;99.90;;;;;;5043376;28;20040;-62
2022/07/27 10:04:07;;;;;;;5.43;1.00;;;18.50;99.90;;;;;;5042145;28;20430;-63
2022/07/27 10:06:33;;;;;;;4.60;1.17;;;18.20;99.90;;;;;;5042405;28;20120;-63
2022/07/27 10:08:59;;;;;;;5.57;1.10;;;18.00;99.90;;;;;;5043214;28;20125;-63
2022/07/27 10:11:26;;;;;;;3.47;1.02;;;17.80;99.90;;;;;;5043020;28;20068;-62
2022/07/27 10:13:54;;;;;;;4.78;1.00;;;18.10;99.90;;;;;;5057173;28;20041;-62
2022/07/27 10:16:27;;;;;;;5.57;1.10;;;18.60;99.90;;;;;;5040724;28;20038;-61
2022/07/27 10:19:02;;;;;;;8.45;1.30;;;18.70;99.90;;;;;;5042902;28;20454;-63
2022/07/27 10:21:28;;;;;;;5.07;0.90;;;18.40;99.90;;;;;;5048396;28;20033;-62
2022/07/27 10:24:08;;;;;;;5.18;0.80;;;18.20;99.90;;;;;;5050870;28;20037;-63
2022/07/27 10:26:35;;;;;;;4.90;0.85;;;18.40;99.90;;;;;;5052247;28;20053;-63
2022/07/27 10:29:04;;;;;;;4.28;1.23;;;18.60;99.90;;;;;;5052092;28;20037;-62
2022/07/27 10:31:36;;;;;;;6.50;1.33;;;18.80;99.90;;;;;;5051759;28;20390;-61
2022/07/27 10:34:05;;;;;;;3.90;1.13;;;19.30;99.90;;;;;;5051807;28;20092;-62
2022/07/27 10:36:31;;;;;;;4.78;1.02;;;19.30;99.90;;;;;;5051127;28;20122;-62
2022/07/27 10:39:06;;;;;;;6.10;1.20;;;19.20;99.90;;;;;;5066447;28;20488;-62
2022/07/27 10:41:33;;;;;;;6.03;1.10;;;18.90;99.90;;;;;;5071810;28;20033;-62
2022/07/27 10:44:15;;;;;;;5.20;0.82;;;18.90;99.90;;;;;;5071709;28;20135;-62
2022/07/27 10:47:02;;;;;;;3.33;1.02;;;19.20;99.90;;;;;;5071815;28;20455;-62
2022/07/27 10:49:29;;;;;;;4.28;1.08;;;19.30;99.90;;;;;;5071821;28;20127;-63
2022/07/27 10:51:56;;;;;;;3.03;0.90;;;19.50;99.90;;;;;;5071666;28;20350;-62
2022/07/27 10:54:29;;;;;;;3.83;0.82;;;19.40;99.90;;;;;;5071583;28;20079;-62
2022/07/27 10:56:56;;;;;;;4.57;1.10;;;19.40;99.90;;;;;;5070352;28;20041;-62
2022/07/27 10:59:37;;;;;;;6.22;1.30;;;19.10;99.90;;;;;;5071704;28;20461;-63
2022/07/27 11:02:11;;;;;;;4.93;0.90;;;19.10;99.90;;;;;;5071284;28;20036;-62
2022/07/27 11:04:51;;;;;;;4.90;1.10;;;19.20;99.90;;;;;;5071659;28;20087;-62
2022/07/27 11:07:21;;;;;;;3.17;0.90;;;19.40;99.90;;;;;;5071897;28;20043;-63
2022/07/27 11:09:49;;;;;;;5.65;0.98;;;19.20;99.90;;;;;;5071867;28;20052;-63
2022/07/27 11:12:16;;;;;;;8.68;1.40;;;19.20;99.90;;;;;;5071698;28;20052;-62
2022/07/27 11:14:53;;;;;;;5.15;1.00;;;19.10;99.90;;;;;;5053341;28;20037;-63
2022/07/27 11:17:25;;;;;;;3.00;0.80;;;19.00;99.90;;;;;;5042821;28;20485;-62
2022/07/27 11:19:56;;;;;;;5.40;1.00;;;19.10;99.90;;;;;;5041436;28;20029;-62
2022/07/27 11:22:48;;;;;;;3.72;0.95;;;19.00;99.90;;;;;;5040478;28;20038;-62
2022/07/27 11:25:14;;;;;;;5.93;1.30;;;19.00;99.90;;;;;;5041332;28;20052;-62
2022/07/27 11:27:50;;;;;;;4.43;0.98;;;18.80;99.90;;;;;;5040456;28;20405;-62
2022/07/27 11:30:26;;;;;;;4.70;1.00;;;19.00;99.90;;;;;;5039781;28;20090;-62
2022/07/27 11:32:52;;;;;;;6.03;0.80;;;18.70;99.90;;;;;;5041574;28;20048;-62
2022/07/27 11:35:18;;;;;;;3.47;1.00;;;18.40;99.90;;;;;;5040420;28;20091;-62
2022/07/27 11:38:00;;;;;;;3.08;0.77;;;18.20;99.90;;;;;;5049069;28;20077;-62
2022/07/27 11:40:26;;;;;;;3.40;0.85;;;18.30;99.90;;;;;;5071847;28;20460;-62
2022/07/27 11:42:52;;;;;;;4.30;0.90;;;18.40;99.90;;;;;;5071707;28;20043;-62
2022/07/27 11:45:28;;;;;;;5.13;1.10;;;18.50;99.90;;;;;;5067634;28;20040;-62
2022/07/27 11:47:57;;;;;;;4.15;0.80;;;18.70;99.90;;;;;;5033242;28;20103;-62
2022/07/27 11:50:22;;;;;;;5.10;0.93;;;19.10;99.90;;;;;;5036029;28;20033;-62
2022/07/27 11:52:56;;;;;;;5.20;0.93;;;19.70;99.90;;;;;;5043484;28;20040;-61
2022/07/27 11:55:21;;;;;;;7.25;1.23;;;20.00;99.90;;;;;;5043260;28;20041;-62
2022/07/27 11:57:47;;;;;;;4.85;0.95;;;20.20;99.90;;;;;;5045129;28;20048;-62
2022/07/27 12:00:13;;;;;;;5.95;1.00;;;19.70;99.90;;;;;;5034801;28;20076;-62
2022/07/27 12:02:50;;;;;;;8.27;1.45;;;19.30;99.90;;;;;;5034664;28;20042;-63
2022/07/27 12:05:16;;;;;;;7.88;1.25;;;19.00;99.90;;;;;;5035069;28;20077;-62
2022/07/27 12:07:43;;;;;;;5.97;0.80;;;19.30;99.90;;;;;;5034875;28;20072;-62
2022/07/27 12:10:09;;;;;;;9.95;1.48;;;19.20;99.90;;;;;;5034862;28;20064;-63
2022/07/27 12:12:36;;;;;;;6.10;1.10;;;19.30;99.90;;;;;;5034535;28;20041;-62
2022/07/27 12:15:18;;;;;;;6.38;1.15;;;19.40;99.90;;;;;;5034368;28;20507;-62
2022/07/27 12:17:46;;;;;;;6.72;1.20;;;19.30;99.90;;;;;;5034498;28;20045;-62
2022/07/27 12:20:16;;;;;;;4.32;1.00;;;19.20;99.90;;;;;;5041576;28;20041;-63
2022/07/27 12:22:50;;;;;;;4.85;1.15;;;19.40;99.90;;;;;;5054145;28;20047;-62
2022/07/27 12:25:16;;;;;;;7.28;1.35;;;19.20;99.90;;;;;;5054442;28;20041;-62
2022/07/27 12:28:00;;;;;;;5.07;1.00;;;19.20;99.90;;;;;;5054352;28;20106;-63
2022/07/27 12:30:37;;;;;;;5.85;1.15;;;19.10;99.90;;;;;;5054577;28;20120;-63
2022/07/27 12:33:05;;;;;;;5.78;1.27;;;19.30;99.90;;;;;;5052760;28;20120;-62
2022/07/27 12:35:46;;;;;;;6.13;1.30;;;19.20;99.90;;;;;;5054270;28;20571;-62
2022/07/27 12:38:12;;;;;;;4.13;1.13;;;19.30;99.90;;;;;;5062834;28;20090;-62
2022/07/27 12:40:47;;;;;;;4.28;0.85;;;19.20;99.90;;;;;;5072762;28;20673;-62
2022/07/27 12:43:18;;;;;;;6.28;1.40;;;19.10;99.90;;;;;;5074095;28;20397;-62
2022/07/27 12:45:45;;;;;;;5.32;1.13;;;19.00;99.90;;;;;;5073831;28;20106;-63
2022/07/27 12:48:14;;;;;;;5.10;1.02;;;19.00;99.90;;;;;;5073783;28;20048;-61
2022/07/27 12:50:41;;;;;;;4.50;1.15;;;19.10;99.90;;;;;;5072669;28;20079;-62
2022/07/27 12:53:08;;;;;;;5.15;1.05;;;19.00;99.90;;;;;;5073798;28;20125;-63